createdAt,value
2022-09-06T00:01:00.987Z,41.74
2022-09-06T00:03:28.328Z,41.85
2022-09-06T00:05:55.479Z,41.83
2022-09-06T00:08:22.021Z,42.00
2022-09-06T00:10:48.676Z,41.70
2022-09-06T00:13:15.143Z,41.96
2022-09-06T00:15:41.791Z,41.80
2022-09-06T00:18:08.752Z,42.09
2022-09-06T00:20:41.465Z,42.64
2022-09-06T00:23:08.276Z,42.42
2022-09-06T00:25:35.348Z,42.84
2022-09-06T00:28:05.007Z,42.35
2022-09-06T00:30:32.854Z,42.87
2022-09-06T00:32:59.416Z,43.22
2022-09-06T00:35:26.857Z,43.28
2022-09-06T00:37:58.934Z,42.52
2022-09-06T00:40:26.030Z,43.19
2022-09-06T00:42:52.767Z,43.46
2022-09-06T00:45:19.951Z,43.74
2022-09-06T00:47:48.310Z,43.44
2022-09-06T00:50:17.838Z,43.69
2022-09-06T00:52:46.858Z,43.92
2022-09-06T00:55:13.742Z,43.99
2022-09-06T00:57:40.415Z,44.19
2022-09-06T01:00:09.619Z,44.31
2022-09-06T01:02:36.833Z,44.21
2022-09-06T01:05:05.046Z,44.33
2022-09-06T01:08:18.141Z,42.54
2022-09-06T01:11:17.618Z,42.90
2022-09-06T01:13:54.871Z,43.13
2022-09-06T01:16:24.320Z,44.46
2022-09-06T01:19:08.958Z,43.76
2022-09-06T01:22:08.279Z,42.78
2022-09-06T01:25:01.521Z,43.02
2022-09-06T01:27:31.020Z,44.69
2022-09-06T01:30:05.992Z,44.11
2022-09-06T01:32:47.512Z,43.75
2022-09-06T01:35:38.084Z,42.82
2022-09-06T01:38:06.136Z,44.86
2022-09-06T01:40:36.492Z,44.63
2022-09-06T01:43:11.196Z,43.89
2022-09-06T01:45:56.084Z,43.13
2022-09-06T01:48:41.520Z,42.94
2022-09-06T01:51:44.901Z,42.48
2022-09-06T01:54:14.541Z,43.83
2022-09-06T01:56:59.712Z,42.56
2022-09-06T01:59:45.080Z,42.84
2022-09-06T02:02:27.005Z,43.96
2022-09-06T02:05:01.511Z,43.60
2022-09-06T02:07:31.034Z,43.72
2022-09-06T02:10:17.006Z,43.39
2022-09-06T02:12:46.237Z,43.55
2022-09-06T02:15:34.617Z,42.47
2022-09-06T02:18:06.274Z,42.96
2022-09-06T02:20:36.657Z,43.14
2022-09-06T02:23:06.269Z,43.14
2022-09-06T02:25:38.944Z,42.75
2022-09-06T02:28:09.416Z,43.09
2022-09-06T02:30:41.019Z,42.77
2022-09-06T02:33:12.751Z,43.26
2022-09-06T02:35:49.613Z,42.89
2022-09-06T02:38:16.450Z,40.95
2022-09-06T02:40:44.161Z,42.46
2022-09-06T02:43:10.642Z,42.87
2022-09-06T02:45:37.230Z,42.64
2022-09-06T02:48:04.086Z,42.85
2022-09-06T02:50:30.962Z,42.84
2022-09-06T02:53:06.002Z,42.49
2022-09-06T02:55:32.857Z,43.11
2022-09-06T02:57:59.426Z,42.82
2022-09-06T03:00:26.941Z,42.69
2022-09-06T03:02:53.618Z,43.06
2022-09-06T03:05:20.430Z,43.41
2022-09-06T03:07:47.003Z,42.90
2022-09-06T03:10:13.514Z,43.24
2022-09-06T03:12:41.653Z,42.96
2022-09-06T03:15:08.685Z,43.62
2022-09-06T03:17:35.474Z,43.49
2022-09-06T03:20:02.202Z,43.28
2022-09-06T03:22:28.762Z,43.48
2022-09-06T03:24:55.278Z,43.16
2022-09-06T03:27:21.752Z,43.41
2022-09-06T03:29:48.245Z,43.52
2022-09-06T03:32:14.910Z,43.71
2022-09-06T03:34:41.556Z,43.12
2022-09-06T03:37:08.051Z,44.29
2022-09-06T03:39:34.639Z,43.77
2022-09-06T03:42:01.128Z,43.88
2022-09-06T03:44:27.648Z,43.48
2022-09-06T03:46:54.197Z,44.17
2022-09-06T03:49:20.819Z,43.99
2022-09-06T03:51:47.353Z,43.52
2022-09-06T03:54:13.847Z,43.64
2022-09-06T03:56:40.333Z,43.31
2022-09-06T03:59:06.892Z,43.78
2022-09-06T04:01:33.640Z,43.21
2022-09-06T04:04:01.557Z,43.38
2022-09-06T04:06:28.761Z,43.90
2022-09-06T04:08:55.252Z,43.03
2022-09-06T04:11:21.761Z,43.71
2022-09-06T04:13:48.821Z,43.53
2022-09-06T04:16:17.628Z,43.12
2022-09-06T04:18:44.336Z,43.33
2022-09-06T04:21:10.897Z,42.71
2022-09-06T04:23:39.962Z,42.90
2022-09-06T04:26:06.787Z,42.10
2022-09-06T04:28:33.316Z,42.38
2022-09-06T04:31:04.974Z,42.81
2022-09-06T04:33:34.276Z,42.78
2022-09-06T04:36:02.459Z,42.16
2022-09-06T04:38:30.567Z,42.49
2022-09-06T04:40:57.137Z,41.84
2022-09-06T04:43:24.270Z,42.11
2022-09-06T04:45:50.974Z,42.69
2022-09-06T04:48:17.620Z,42.09
2022-09-06T04:50:44.339Z,42.44
2022-09-06T04:53:11.113Z,42.84
2022-09-06T04:55:38.241Z,42.47
2022-09-06T04:58:05.631Z,42.79
2022-09-06T05:00:34.211Z,42.90
2022-09-06T05:03:00.777Z,42.93
2022-09-06T05:05:27.288Z,42.86
2022-09-06T05:07:54.389Z,43.09
2022-09-06T05:10:22.734Z,43.30
2022-09-06T05:12:50.701Z,43.63
2022-09-06T05:15:18.524Z,43.58
2022-09-06T05:17:45.096Z,43.54
2022-09-06T05:20:12.384Z,43.54
2022-09-06T05:22:39.976Z,43.75
2022-09-06T05:25:08.348Z,43.92
2022-09-06T05:27:34.926Z,44.03
2022-09-06T05:30:01.474Z,44.20
2022-09-06T05:32:28.034Z,44.36
2022-09-06T05:34:54.555Z,44.32
2022-09-06T05:37:21.046Z,44.04
2022-09-06T05:39:47.497Z,42.30
2022-09-06T05:42:19.009Z,43.56
2022-09-06T05:44:45.790Z,44.21
2022-09-06T05:47:12.294Z,42.22
2022-09-06T05:49:38.787Z,44.01
2022-09-06T05:52:05.260Z,41.89
2022-09-06T05:54:31.998Z,44.17
2022-09-06T05:56:58.541Z,43.83
2022-09-06T05:59:25.251Z,44.72
2022-09-06T06:01:53.344Z,43.81
2022-09-06T06:04:21.062Z,44.19
2022-09-06T06:06:49.018Z,44.70
2022-09-06T06:09:16.193Z,44.44
2022-09-06T06:11:42.879Z,44.31
2022-09-06T06:14:09.502Z,43.94
2022-09-06T06:16:36.687Z,43.88
2022-09-06T06:19:03.276Z,44.29
2022-09-06T06:21:31.142Z,44.66
2022-09-06T06:23:59.956Z,43.82
2022-09-06T06:26:27.888Z,43.95
2022-09-06T06:28:55.584Z,44.07
2022-09-06T06:31:22.810Z,43.71
2022-09-06T06:33:50.313Z,43.70
2022-09-06T06:36:22.701Z,43.66
2022-09-06T06:38:51.485Z,43.64
2022-09-06T06:41:19.934Z,43.81
2022-09-06T06:43:46.479Z,44.06
2022-09-06T06:46:15.519Z,44.14
2022-09-06T06:48:46.333Z,44.21
2022-09-06T06:51:16.767Z,43.50
2022-09-06T06:53:47.624Z,43.69
2022-09-06T06:56:31.853Z,43.18
2022-09-06T06:59:00.304Z,44.22
2022-09-06T07:01:29.002Z,43.98
2022-09-06T07:03:56.122Z,43.25
2022-09-06T07:09:09.735Z,43.31
2022-09-06T07:11:36.278Z,42.90
2022-09-06T07:14:02.822Z,43.13
2022-09-06T07:16:30.085Z,42.70
2022-09-06T07:18:56.761Z,43.28
2022-09-06T07:21:43.447Z,43.57
2022-09-06T07:24:10.559Z,43.11
2022-09-06T07:26:39.494Z,43.38
2022-09-06T07:29:07.254Z,43.62
2022-09-06T07:34:22.109Z,43.00
2022-09-06T07:36:48.780Z,42.64
2022-09-06T07:39:15.457Z,42.72
2022-09-06T07:41:43.243Z,43.18
2022-09-06T07:44:09.962Z,42.69
2022-09-06T07:46:36.547Z,42.28
2022-09-06T07:49:05.996Z,42.25
2022-09-06T07:51:32.876Z,42.13
2022-09-06T07:54:29.460Z,42.30
2022-09-06T07:56:47.444Z,41.88
2022-09-06T07:59:13.987Z,41.46
2022-09-06T08:01:41.344Z,41.68
2022-09-06T08:04:10.318Z,42.06
2022-09-06T08:09:25.414Z,41.63
2022-09-06T08:11:52.807Z,41.94
2022-09-06T08:14:19.997Z,41.78
2022-09-06T08:16:46.584Z,41.89
2022-09-06T08:19:14.601Z,41.37
2022-09-06T08:21:41.427Z,41.52
2022-09-06T08:24:12.258Z,41.84
2022-09-06T08:26:40.713Z,41.90
2022-09-06T08:29:08.936Z,42.11
2022-09-06T08:31:38.608Z,41.90
2022-09-06T08:34:05.522Z,42.12
2022-09-06T08:36:32.840Z,42.30
2022-09-06T08:39:01.356Z,41.98
2022-09-06T08:41:31.306Z,41.93
2022-09-06T08:47:10.309Z,41.62
2022-09-06T08:49:40.797Z,41.84
2022-09-06T08:52:20.533Z,41.61
2022-09-06T08:54:46.953Z,41.22
2022-09-06T08:57:30.707Z,41.31
2022-09-06T09:00:02.727Z,41.28
2022-09-06T09:02:41.371Z,41.23
2022-09-06T09:05:32.145Z,41.29
2022-09-06T09:08:25.636Z,41.22
2022-09-06T09:11:01.112Z,40.68
2022-09-06T09:13:33.624Z,40.21
2022-09-06T09:16:00.380Z,40.42
2022-09-06T09:18:34.130Z,39.93
2022-09-06T09:21:00.743Z,39.36
2022-09-06T09:23:29.834Z,38.86
2022-09-06T09:26:01.607Z,39.28
2022-09-06T09:28:28.524Z,38.38
2022-09-06T09:30:56.732Z,38.29
2022-09-06T09:33:38.781Z,38.17
2022-09-06T09:36:09.911Z,37.98
2022-09-06T09:38:49.304Z,38.01
2022-09-06T09:41:27.985Z,37.99
2022-09-06T09:44:01.161Z,37.26
2022-09-06T09:46:33.992Z,36.90
2022-09-06T09:49:06.551Z,36.18
2022-09-06T09:51:36.648Z,36.65
2022-09-06T09:54:06.681Z,36.48
2022-09-06T09:56:38.499Z,36.82
2022-09-06T09:59:17.245Z,36.53
2022-09-06T10:01:44.160Z,35.91
2022-09-06T10:07:10.011Z,36.61
2022-09-06T10:09:39.477Z,36.11
2022-09-06T10:12:06.767Z,36.03
2022-09-06T10:14:45.276Z,35.97
2022-09-06T10:17:20.724Z,35.66
2022-09-06T10:19:48.277Z,34.55
2022-09-06T10:22:23.726Z,35.04
2022-09-06T10:25:02.256Z,33.67
2022-09-06T10:27:29.039Z,34.36
2022-09-06T10:30:04.916Z,34.44
2022-09-06T10:32:42.644Z,34.69
2022-09-06T10:35:16.414Z,34.64
2022-09-06T10:37:52.459Z,34.92
2022-09-06T10:40:32.026Z,34.37
2022-09-06T10:43:00.548Z,33.73
2022-09-06T10:45:54.759Z,34.51
2022-09-06T10:48:28.800Z,34.24
2022-09-06T10:51:07.083Z,33.84
2022-09-06T10:53:42.371Z,34.36
2022-09-06T10:56:13.125Z,33.78
2022-09-06T11:01:41.833Z,33.81
2022-09-06T11:04:25.798Z,33.95
2022-09-06T11:06:57.701Z,33.27
2022-09-06T11:09:38.851Z,33.94
2022-09-06T11:12:12.200Z,32.57
2022-09-06T11:14:40.024Z,32.31
2022-09-06T11:17:10.189Z,32.21
2022-09-06T11:19:44.281Z,32.82
2022-09-06T11:22:50.165Z,33.15
2022-09-06T11:25:16.644Z,31.28
2022-09-06T11:27:47.784Z,31.87
2022-09-06T11:30:16.639Z,31.41
2022-09-06T11:32:49.037Z,30.86
2022-09-06T11:35:32.201Z,32.32
2022-09-06T11:38:05.178Z,31.10
2022-09-06T11:40:44.035Z,31.26
2022-09-06T11:43:35.938Z,30.83
2022-09-06T11:46:05.305Z,29.70
2022-09-06T11:48:48.445Z,29.81
2022-09-06T11:51:38.436Z,31.48
2022-09-06T11:54:22.017Z,30.67
2022-09-06T11:57:02.718Z,30.36
2022-09-06T11:59:56.178Z,30.99
2022-09-06T12:02:41.225Z,30.61
2022-09-06T12:05:12.050Z,29.48
2022-09-06T12:08:10.673Z,30.78
2022-09-06T12:10:40.318Z,29.66
2022-09-06T12:13:44.511Z,30.37
2022-09-06T12:16:12.138Z,28.83
2022-09-06T12:18:47.815Z,29.73
2022-09-06T12:21:38.674Z,30.48
2022-09-06T12:24:09.794Z,28.87
2022-09-06T12:26:55.369Z,29.48
2022-09-06T12:29:26.859Z,28.48
2022-09-06T12:32:01.986Z,28.73
2022-09-06T12:34:34.608Z,28.86
2022-09-06T12:37:05.269Z,28.29
2022-09-06T12:39:32.021Z,27.75
2022-09-06T12:42:02.554Z,28.30
2022-09-06T12:44:32.846Z,28.40
2022-09-06T12:47:06.073Z,28.37
2022-09-06T12:49:32.693Z,27.33
2022-09-06T12:52:07.601Z,28.31
2022-09-06T12:54:42.964Z,28.08
2022-09-06T12:57:17.177Z,27.69
2022-09-06T12:59:54.131Z,27.86
2022-09-06T13:02:27.600Z,27.34
2022-09-06T13:05:02.672Z,27.47
2022-09-06T13:07:31.733Z,26.64
2022-09-06T13:09:58.845Z,26.89
2022-09-06T13:12:33.458Z,27.29
2022-09-06T13:15:17.161Z,27.59
2022-09-06T13:17:43.675Z,26.59
2022-09-06T13:20:22.889Z,27.14
2022-09-06T13:22:51.489Z,26.19
2022-09-06T13:25:24.849Z,26.12
2022-09-06T13:27:58.221Z,26.41
2022-09-06T13:30:32.224Z,27.07
2022-09-06T13:32:59.808Z,26.16
2022-09-06T13:35:29.450Z,26.68
2022-09-06T13:38:31.876Z,27.22
2022-09-06T13:41:12.627Z,26.24
2022-09-06T13:43:47.786Z,26.35
2022-09-06T13:46:14.435Z,25.99
2022-09-06T13:48:41.617Z,26.09
2022-09-06T13:51:09.845Z,26.13
2022-09-06T13:53:36.485Z,25.97
2022-09-06T13:56:03.141Z,25.88
2022-09-06T13:58:29.941Z,25.86
2022-09-06T14:00:56.961Z,25.89
2022-09-06T14:03:32.549Z,26.66
2022-09-06T14:06:02.650Z,26.24
2022-09-06T14:08:43.641Z,25.92
2022-09-06T14:11:17.028Z,25.72
2022-09-06T14:13:44.248Z,25.70
2022-09-06T14:16:11.846Z,26.24
2022-09-06T14:18:38.590Z,26.05
2022-09-06T14:21:05.502Z,26.06
2022-09-06T14:23:32.080Z,26.21
2022-09-06T14:26:00.662Z,26.17
2022-09-06T14:28:27.669Z,26.46
2022-09-06T14:30:55.047Z,26.01
2022-09-06T14:33:21.742Z,25.86
2022-09-06T14:35:49.240Z,25.70
2022-09-06T14:38:15.910Z,26.13
2022-09-06T14:40:45.298Z,26.05
2022-09-06T14:43:11.948Z,26.28
2022-09-06T14:45:38.611Z,25.84
2022-09-06T14:48:05.690Z,26.29
2022-09-06T14:50:32.291Z,26.37
2022-09-06T14:52:58.866Z,25.99
2022-09-06T14:55:25.442Z,26.12
2022-09-06T14:57:59.611Z,25.87
2022-09-06T15:00:26.317Z,26.23
2022-09-06T15:02:56.043Z,25.78
2022-09-06T15:05:22.796Z,26.20
2022-09-06T15:07:49.706Z,25.99
2022-09-06T15:10:16.592Z,25.85
2022-09-06T15:12:43.159Z,25.83
2022-09-06T15:15:10.193Z,25.99
2022-09-06T15:17:37.248Z,26.00
2022-09-06T15:20:04.292Z,25.94
2022-09-06T15:22:31.221Z,25.95
2022-09-06T15:24:58.030Z,26.31
2022-09-06T15:27:24.633Z,26.11
2022-09-06T15:29:51.193Z,26.32
2022-09-06T15:32:17.801Z,25.97
2022-09-06T15:34:44.296Z,26.55
2022-09-06T15:37:10.940Z,26.76
2022-09-06T15:39:37.522Z,26.65
2022-09-06T15:42:04.293Z,26.37
2022-09-06T15:44:30.949Z,26.53
2022-09-06T15:46:59.275Z,27.05
2022-09-06T15:49:32.000Z,26.94
2022-09-06T15:52:01.088Z,26.71
2022-09-06T15:54:46.955Z,26.23
2022-09-06T15:57:16.261Z,26.64
2022-09-06T15:59:42.973Z,26.86
2022-09-06T16:02:10.066Z,26.62
2022-09-06T16:04:36.743Z,26.69
2022-09-06T16:07:03.797Z,26.95
2022-09-06T16:09:30.926Z,26.76
2022-09-06T16:11:57.741Z,27.04
2022-09-06T16:14:24.300Z,26.96
2022-09-06T16:16:53.833Z,27.15
2022-09-06T16:19:20.574Z,27.18
2022-09-06T16:21:47.154Z,27.00
2022-09-06T16:24:14.469Z,27.55
2022-09-06T16:26:44.453Z,27.32
2022-09-06T16:29:13.270Z,27.26
2022-09-06T16:31:40.867Z,27.66
2022-09-06T16:34:11.917Z,27.80
2022-09-06T16:36:38.958Z,27.77
2022-09-06T16:39:06.418Z,28.12
2022-09-06T16:41:42.599Z,28.07
2022-09-06T16:44:10.145Z,27.53
2022-09-06T16:46:37.030Z,28.18
2022-09-06T16:49:04.617Z,28.36
2022-09-06T16:51:31.905Z,28.55
2022-09-06T16:53:59.957Z,28.83
2022-09-06T16:56:29.369Z,28.89
2022-09-06T16:58:58.692Z,28.95
2022-09-06T17:01:27.467Z,29.05
2022-09-06T17:03:54.576Z,28.92
2022-09-06T17:06:22.134Z,29.42
2022-09-06T17:08:49.058Z,29.14
2022-09-06T17:11:19.019Z,29.66
2022-09-06T17:13:48.130Z,29.51
2022-09-06T17:16:33.749Z,29.83
2022-09-06T17:19:01.385Z,29.77
2022-09-06T17:21:29.396Z,29.71
2022-09-06T17:23:58.219Z,30.07
2022-09-06T17:26:24.850Z,29.98
2022-09-06T17:28:51.721Z,30.37
2022-09-06T17:31:25.490Z,30.30
2022-09-06T17:33:53.374Z,30.81
2022-09-06T17:36:25.881Z,30.48
2022-09-06T17:38:53.964Z,30.95
2022-09-06T17:44:48.803Z,31.24
2022-09-06T17:47:16.088Z,31.24
2022-09-06T17:49:42.835Z,31.46
2022-09-06T17:52:09.774Z,31.80
2022-09-06T17:54:36.507Z,31.48
2022-09-06T17:57:03.075Z,32.11
2022-09-06T17:59:35.060Z,31.96
2022-09-06T18:02:02.302Z,32.45
2022-09-06T18:04:28.881Z,32.47
2022-09-06T18:06:55.475Z,32.33
2022-09-06T18:09:22.439Z,32.80
2022-09-06T18:11:49.219Z,32.74
2022-09-06T18:14:20.697Z,33.02
2022-09-06T18:16:49.301Z,33.44
2022-09-06T18:19:17.658Z,33.58
2022-09-06T18:21:44.849Z,33.38
2022-09-06T18:24:13.862Z,33.82
2022-09-06T18:26:41.678Z,33.90
2022-09-06T18:29:12.060Z,34.31
2022-09-06T18:31:39.606Z,34.43
2022-09-06T18:34:07.348Z,34.14
2022-09-06T18:36:33.867Z,34.29
2022-09-06T18:39:05.094Z,34.64
2022-09-06T18:41:53.808Z,34.49
2022-09-06T18:44:20.673Z,34.84
2022-09-06T18:46:48.010Z,35.18
2022-09-06T18:49:15.618Z,35.01
2022-09-06T18:51:43.486Z,35.51
2022-09-06T18:54:11.065Z,35.56
2022-09-06T18:56:37.966Z,35.88
2022-09-06T18:59:05.711Z,36.05
2022-09-06T19:01:33.416Z,36.24
2022-09-06T19:04:01.146Z,36.12
2022-09-06T19:06:29.465Z,36.27
2022-09-06T19:09:00.704Z,36.27
2022-09-06T19:11:27.889Z,36.60
2022-09-06T19:13:56.238Z,36.81
2022-09-06T19:16:24.459Z,36.94
2022-09-06T19:18:51.193Z,37.21
2022-09-06T19:21:19.692Z,37.01
2022-09-06T19:23:54.121Z,37.31
2022-09-06T19:26:22.463Z,37.66
2022-09-06T19:28:57.317Z,36.91
2022-09-06T19:31:25.642Z,37.80
2022-09-06T19:33:53.980Z,38.31
2022-09-06T19:36:22.258Z,38.03
2022-09-06T19:39:05.784Z,37.25
2022-09-06T19:41:38.601Z,38.68
2022-09-06T19:44:08.540Z,38.54
2022-09-06T19:46:35.728Z,38.69
2022-09-06T19:49:02.435Z,38.62
2022-09-06T19:51:29.165Z,39.07
2022-09-06T19:54:00.167Z,39.10
2022-09-06T19:56:32.670Z,38.75
2022-09-06T19:59:01.774Z,39.36
2022-09-06T20:01:31.190Z,39.15
2022-09-06T20:03:59.109Z,39.06
2022-09-06T20:06:27.035Z,39.12
2022-09-06T20:08:55.527Z,39.41
2022-09-06T20:11:24.176Z,39.48
2022-09-06T20:13:50.967Z,39.61
2022-09-06T20:16:20.568Z,39.63
2022-09-06T20:18:48.397Z,39.18
2022-09-06T20:21:15.118Z,39.53
2022-09-06T20:23:42.061Z,39.54
2022-09-06T20:26:16.097Z,39.10
2022-09-06T20:28:44.133Z,39.92
2022-09-06T20:31:14.118Z,39.67
2022-09-06T20:33:40.725Z,40.24
2022-09-06T20:36:09.226Z,40.02
2022-09-06T20:38:38.246Z,39.94
2022-09-06T20:41:13.118Z,40.12
2022-09-06T20:43:40.628Z,40.15
2022-09-06T20:46:15.636Z,39.64
2022-09-06T20:48:44.872Z,40.10
2022-09-06T20:51:15.639Z,40.16
2022-09-06T20:53:42.669Z,40.30
2022-09-06T20:56:14.127Z,39.63
2022-09-06T20:58:41.367Z,40.51
2022-09-06T21:01:11.874Z,40.52
2022-09-06T21:03:40.952Z,40.64
2022-09-06T21:06:09.650Z,40.45
2022-09-06T21:08:41.858Z,40.71
2022-09-06T21:11:09.877Z,40.88
2022-09-06T21:13:37.362Z,41.22
2022-09-06T21:16:04.934Z,41.18
2022-09-06T21:18:32.881Z,41.45
2022-09-06T21:21:01.613Z,41.56
2022-09-06T21:23:30.345Z,41.36
2022-09-06T21:25:59.280Z,41.34
2022-09-06T21:28:29.025Z,40.96
2022-09-06T21:31:09.920Z,40.11
2022-09-06T21:33:38.099Z,42.10
2022-09-06T21:36:08.098Z,41.64
2022-09-06T21:38:36.864Z,41.66
2022-09-06T21:41:04.615Z,41.84
2022-09-06T21:43:31.787Z,42.54
2022-09-06T21:46:02.951Z,41.67
2022-09-06T21:48:29.779Z,42.59
2022-09-06T21:50:56.472Z,42.52
2022-09-06T21:53:23.736Z,42.56
2022-09-06T21:55:50.340Z,42.56
2022-09-06T21:58:16.912Z,44.14
2022-09-06T22:00:46.135Z,45.16
2022-09-06T22:03:12.718Z,44.72
2022-09-06T22:05:39.422Z,44.74
2022-09-06T22:08:06.045Z,45.23
2022-09-06T22:10:32.585Z,44.88
2022-09-06T22:12:59.136Z,45.40
2022-09-06T22:15:25.750Z,44.74
2022-09-06T22:17:52.353Z,44.38
2022-09-06T22:20:19.317Z,45.12
2022-09-06T22:22:46.290Z,43.99
2022-09-06T22:25:13.887Z,44.36
2022-09-06T22:27:41.400Z,43.81
2022-09-06T22:30:08.649Z,43.81
2022-09-06T22:32:35.130Z,43.21
2022-09-06T22:35:01.810Z,43.16
2022-09-06T22:37:28.350Z,43.20
2022-09-06T22:39:54.956Z,42.14
2022-09-06T22:42:21.514Z,42.22
